sensor_id;sensor_type;location;lat;lon;timestamp;P1;durP1;ratioP1;P2;durP2;ratioP2
68438;SDS011;55421;51.600;5.718;2022-07-29T00:02:18;7.10;;;1.60;;
68438;SDS011;55421;51.600;5.718;2022-07-29T00:04:45;3.20;;;1.40;;
68438;SDS011;55421;51.600;5.718;2022-07-29T00:07:11;4.50;;;1.70;;
68438;SDS011;55421;51.600;5.718;2022-07-29T00:09:37;5.40;;;1.50;;
68438;SDS011;55421;51.600;5.718;2022-07-29T00:12:04;4.60;;;1.30;;
68438;SDS011;55421;51.600;5.718;2022-07-29T00:14:31;13.30;;;2.40;;
68438;SDS011;55421;51.600;5.718;2022-07-29T00:16:57;3.20;;;1.70;;
68438;SDS011;55421;51.600;5.718;2022-07-29T00:19:23;2.90;;;1.40;;
68438;SDS011;55421;51.600;5.718;2022-07-29T00:21:50;3.60;;;1.70;;
68438;SDS011;55421;51.600;5.718;2022-07-29T00:24:16;2.50;;;1.50;;
68438;SDS011;55421;51.600;5.718;2022-07-29T00:26:42;2.30;;;1.70;;
68438;SDS011;55421;51.600;5.718;2022-07-29T00:29:09;1.70;;;1.40;;
68438;SDS011;55421;51.600;5.718;2022-07-29T00:31:35;3.60;;;1.80;;
68438;SDS011;55421;51.600;5.718;2022-07-29T00:34:02;3.30;;;1.70;;
68438;SDS011;55421;51.600;5.718;2022-07-29T00:36:29;4.40;;;1.40;;
68438;SDS011;55421;51.600;5.718;2022-07-29T00:38:55;2.70;;;1.60;;
68438;SDS011;55421;51.600;5.718;2022-07-29T00:41:22;3.80;;;1.80;;
68438;SDS011;55421;51.600;5.718;2022-07-29T00:43:48;6.60;;;1.70;;
68438;SDS011;55421;51.600;5.718;2022-07-29T00:46:14;2.80;;;1.60;;
68438;SDS011;55421;51.600;5.718;2022-07-29T00:48:41;6.10;;;1.90;;
68438;SDS011;55421;51.600;5.718;2022-07-29T00:51:07;4.50;;;1.80;;
68438;SDS011;55421;51.600;5.718;2022-07-29T00:53:36;3.80;;;2.00;;
68438;SDS011;55421;51.600;5.718;2022-07-29T00:56:02;4.60;;;2.00;;
68438;SDS011;55421;51.600;5.718;2022-07-29T00:58:29;6.10;;;1.80;;
68438;SDS011;55421;51.600;5.718;2022-07-29T01:00:57;4.00;;;1.80;;
68438;SDS011;55421;51.600;5.718;2022-07-29T01:03:24;5.30;;;2.00;;
68438;SDS011;55421;51.600;5.718;2022-07-29T01:05:51;2.80;;;1.70;;
68438;SDS011;55421;51.600;5.718;2022-07-29T01:08:19;3.60;;;2.00;;
68438;SDS011;55421;51.600;5.718;2022-07-29T01:10:46;2.90;;;2.00;;
68438;SDS011;55421;51.600;5.718;2022-07-29T01:13:14;4.40;;;2.00;;
68438;SDS011;55421;51.600;5.718;2022-07-29T01:15:55;4.90;;;1.80;;
68438;SDS011;55421;51.600;5.718;2022-07-29T01:18:34;5.20;;;2.00;;
68438;SDS011;55421;51.600;5.718;2022-07-29T01:21:35;3.10;;;1.60;;
68438;SDS011;55421;51.600;5.718;2022-07-29T01:24:50;3.70;;;2.40;;
68438;SDS011;55421;51.600;5.718;2022-07-29T01:27:44;3.80;;;2.10;;
68438;SDS011;55421;51.600;5.718;2022-07-29T01:30:15;4.80;;;2.10;;
68438;SDS011;55421;51.600;5.718;2022-07-29T01:32:42;4.50;;;2.60;;
68438;SDS011;55421;51.600;5.718;2022-07-29T01:35:22;2.80;;;2.40;;
68438;SDS011;55421;51.600;5.718;2022-07-29T01:38:10;4.70;;;2.20;;
68438;SDS011;55421;51.600;5.718;2022-07-29T01:40:48;2.40;;;2.10;;
68438;SDS011;55421;51.600;5.718;2022-07-29T01:43:34;5.00;;;2.20;;
68438;SDS011;55421;51.600;5.718;2022-07-29T01:46:20;4.80;;;2.60;;
68438;SDS011;55421;51.600;5.718;2022-07-29T01:48:56;6.00;;;2.30;;
68438;SDS011;55421;51.600;5.718;2022-07-29T01:51:33;3.70;;;2.30;;
68438;SDS011;55421;51.600;5.718;2022-07-29T01:54:28;3.70;;;2.20;;
68438;SDS011;55421;51.600;5.718;2022-07-29T01:57:06;6.90;;;2.60;;
68438;SDS011;55421;51.600;5.718;2022-07-29T01:59:36;2.80;;;2.30;;
68438;SDS011;55421;51.600;5.718;2022-07-29T02:02:04;4.20;;;2.30;;
68438;SDS011;55421;51.600;5.718;2022-07-29T02:04:35;6.20;;;3.10;;
68438;SDS011;55421;51.600;5.718;2022-07-29T02:07:05;4.00;;;2.70;;
68438;SDS011;55421;51.600;5.718;2022-07-29T02:09:37;3.80;;;2.50;;
68438;SDS011;55421;51.600;5.718;2022-07-29T02:12:07;4.10;;;2.70;;
68438;SDS011;55421;51.600;5.718;2022-07-29T02:14:40;4.70;;;2.70;;
68438;SDS011;55421;51.600;5.718;2022-07-29T02:17:12;4.70;;;3.00;;
68438;SDS011;55421;51.600;5.718;2022-07-29T02:19:40;5.20;;;2.60;;
68438;SDS011;55421;51.600;5.718;2022-07-29T02:24:38;2.90;;;2.60;;
68438;SDS011;55421;51.600;5.718;2022-07-29T02:27:07;2.70;;;2.50;;
68438;SDS011;55421;51.600;5.718;2022-07-29T02:29:36;3.70;;;2.80;;
68438;SDS011;55421;51.600;5.718;2022-07-29T02:32:07;4.50;;;2.50;;
68438;SDS011;55421;51.600;5.718;2022-07-29T02:34:39;3.60;;;2.90;;
68438;SDS011;55421;51.600;5.718;2022-07-29T02:37:09;6.80;;;2.70;;
68438;SDS011;55421;51.600;5.718;2022-07-29T02:39:39;3.00;;;2.40;;
68438;SDS011;55421;51.600;5.718;2022-07-29T02:42:12;6.40;;;2.60;;
68438;SDS011;55421;51.600;5.718;2022-07-29T02:44:41;4.60;;;2.60;;
68438;SDS011;55421;51.600;5.718;2022-07-29T02:47:24;5.50;;;2.80;;
68438;SDS011;55421;51.600;5.718;2022-07-29T02:50:06;5.80;;;3.40;;
68438;SDS011;55421;51.600;5.718;2022-07-29T02:52:45;5.10;;;2.70;;
68438;SDS011;55421;51.600;5.718;2022-07-29T02:55:25;6.10;;;2.70;;
68438;SDS011;55421;51.600;5.718;2022-07-29T03:01:08;5.40;;;2.60;;
68438;SDS011;55421;51.600;5.718;2022-07-29T03:03:42;7.60;;;2.90;;
68438;SDS011;55421;51.600;5.718;2022-07-29T03:06:13;6.20;;;3.50;;
68438;SDS011;55421;51.600;5.718;2022-07-29T03:08:44;3.70;;;2.70;;
68438;SDS011;55421;51.600;5.718;2022-07-29T03:11:12;4.70;;;3.00;;
68438;SDS011;55421;51.600;5.718;2022-07-29T03:13:39;4.90;;;3.00;;
68438;SDS011;55421;51.600;5.718;2022-07-29T03:16:07;3.60;;;2.80;;
68438;SDS011;55421;51.600;5.718;2022-07-29T03:18:36;5.70;;;3.00;;
68438;SDS011;55421;51.600;5.718;2022-07-29T03:21:03;5.60;;;3.40;;
68438;SDS011;55421;51.600;5.718;2022-07-29T03:23:30;5.00;;;2.90;;
68438;SDS011;55421;51.600;5.718;2022-07-29T03:25:56;5.30;;;2.90;;
68438;SDS011;55421;51.600;5.718;2022-07-29T03:28:23;6.00;;;2.90;;
68438;SDS011;55421;51.600;5.718;2022-07-29T03:30:49;6.70;;;2.80;;
68438;SDS011;55421;51.600;5.718;2022-07-29T03:33:16;6.10;;;3.00;;
68438;SDS011;55421;51.600;5.718;2022-07-29T03:35:42;4.50;;;3.30;;
68438;SDS011;55421;51.600;5.718;2022-07-29T03:38:09;3.00;;;2.80;;
68438;SDS011;55421;51.600;5.718;2022-07-29T03:40:38;7.90;;;2.80;;
68438;SDS011;55421;51.600;5.718;2022-07-29T03:43:09;4.80;;;3.00;;
68438;SDS011;55421;51.600;5.718;2022-07-29T03:45:38;5.70;;;3.00;;
68438;SDS011;55421;51.600;5.718;2022-07-29T03:48:10;4.30;;;3.10;;
68438;SDS011;55421;51.600;5.718;2022-07-29T03:50:40;3.40;;;3.00;;
68438;SDS011;55421;51.600;5.718;2022-07-29T03:53:09;5.80;;;2.70;;
68438;SDS011;55421;51.600;5.718;2022-07-29T03:55:40;7.60;;;2.80;;
68438;SDS011;55421;51.600;5.718;2022-07-29T03:58:10;3.00;;;2.70;;
68438;SDS011;55421;51.600;5.718;2022-07-29T04:00:40;4.10;;;3.30;;
68438;SDS011;55421;51.600;5.718;2022-07-29T04:03:08;6.20;;;3.20;;
68438;SDS011;55421;51.600;5.718;2022-07-29T04:05:34;8.20;;;3.40;;
68438;SDS011;55421;51.600;5.718;2022-07-29T04:08:01;3.30;;;2.80;;
68438;SDS011;55421;51.600;5.718;2022-07-29T04:10:27;3.70;;;2.70;;
68438;SDS011;55421;51.600;5.718;2022-07-29T04:12:54;3.30;;;2.80;;
68438;SDS011;55421;51.600;5.718;2022-07-29T04:15:20;4.30;;;3.10;;
68438;SDS011;55421;51.600;5.718;2022-07-29T04:17:47;5.60;;;3.10;;
68438;SDS011;55421;51.600;5.718;2022-07-29T04:20:13;6.90;;;3.70;;
68438;SDS011;55421;51.600;5.718;2022-07-29T04:22:40;4.70;;;3.20;;
68438;SDS011;55421;51.600;5.718;2022-07-29T04:25:07;3.20;;;2.60;;
68438;SDS011;55421;51.600;5.718;2022-07-29T04:27:34;3.20;;;2.90;;
68438;SDS011;55421;51.600;5.718;2022-07-29T04:30:01;4.50;;;3.10;;
68438;SDS011;55421;51.600;5.718;2022-07-29T04:32:27;5.70;;;3.20;;
68438;SDS011;55421;51.600;5.718;2022-07-29T04:34:54;3.50;;;3.00;;
68438;SDS011;55421;51.600;5.718;2022-07-29T04:37:20;5.20;;;3.60;;
68438;SDS011;55421;51.600;5.718;2022-07-29T04:39:46;5.40;;;3.20;;
68438;SDS011;55421;51.600;5.718;2022-07-29T04:42:13;5.50;;;3.00;;
68438;SDS011;55421;51.600;5.718;2022-07-29T04:44:39;4.10;;;3.00;;
68438;SDS011;55421;51.600;5.718;2022-07-29T04:47:07;3.30;;;3.00;;
68438;SDS011;55421;51.600;5.718;2022-07-29T04:49:37;3.60;;;3.30;;
68438;SDS011;55421;51.600;5.718;2022-07-29T04:52:05;5.50;;;3.30;;
68438;SDS011;55421;51.600;5.718;2022-07-29T04:54:32;7.40;;;3.50;;
68438;SDS011;55421;51.600;5.718;2022-07-29T04:56:59;5.60;;;3.80;;
68438;SDS011;55421;51.600;5.718;2022-07-29T04:59:25;4.20;;;3.30;;
68438;SDS011;55421;51.600;5.718;2022-07-29T05:01:52;4.80;;;3.60;;
68438;SDS011;55421;51.600;5.718;2022-07-29T05:04:19;8.10;;;4.30;;
68438;SDS011;55421;51.600;5.718;2022-07-29T05:06:45;5.80;;;4.00;;
68438;SDS011;55421;51.600;5.718;2022-07-29T05:09:11;5.80;;;4.30;;
68438;SDS011;55421;51.600;5.718;2022-07-29T05:11:38;10.40;;;4.20;;
68438;SDS011;55421;51.600;5.718;2022-07-29T05:14:04;9.10;;;3.80;;
68438;SDS011;55421;51.600;5.718;2022-07-29T05:16:30;4.60;;;4.20;;
68438;SDS011;55421;51.600;5.718;2022-07-29T05:18:57;4.60;;;3.90;;
68438;SDS011;55421;51.600;5.718;2022-07-29T05:21:23;5.20;;;4.00;;
68438;SDS011;55421;51.600;5.718;2022-07-29T05:23:50;7.60;;;4.20;;
68438;SDS011;55421;51.600;5.718;2022-07-29T05:26:16;8.00;;;4.60;;
68438;SDS011;55421;51.600;5.718;2022-07-29T05:28:43;4.60;;;4.20;;
68438;SDS011;55421;51.600;5.718;2022-07-29T05:31:09;7.30;;;3.90;;
68438;SDS011;55421;51.600;5.718;2022-07-29T05:33:36;5.50;;;4.60;;
68438;SDS011;55421;51.600;5.718;2022-07-29T05:36:05;9.30;;;4.70;;
68438;SDS011;55421;51.600;5.718;2022-07-29T05:38:33;5.20;;;4.70;;
68438;SDS011;55421;51.600;5.718;2022-07-29T05:41:00;5.00;;;4.40;;
68438;SDS011;55421;51.600;5.718;2022-07-29T05:43:28;6.00;;;4.40;;
68438;SDS011;55421;51.600;5.718;2022-07-29T05:45:55;4.20;;;3.80;;
68438;SDS011;55421;51.600;5.718;2022-07-29T05:48:22;4.80;;;4.10;;
68438;SDS011;55421;51.600;5.718;2022-07-29T05:50:48;8.50;;;4.60;;
68438;SDS011;55421;51.600;5.718;2022-07-29T05:53:14;6.40;;;4.60;;
68438;SDS011;55421;51.600;5.718;2022-07-29T05:55:42;6.40;;;4.10;;
68438;SDS011;55421;51.600;5.718;2022-07-29T05:58:08;6.90;;;4.20;;
68438;SDS011;55421;51.600;5.718;2022-07-29T06:00:35;6.30;;;4.70;;
68438;SDS011;55421;51.600;5.718;2022-07-29T06:03:01;8.10;;;5.10;;
68438;SDS011;55421;51.600;5.718;2022-07-29T06:05:27;5.60;;;4.90;;
68438;SDS011;55421;51.600;5.718;2022-07-29T06:07:54;7.90;;;4.90;;
68438;SDS011;55421;51.600;5.718;2022-07-29T06:10:20;9.90;;;4.80;;
68438;SDS011;55421;51.600;5.718;2022-07-29T06:12:47;7.70;;;4.80;;
68438;SDS011;55421;51.600;5.718;2022-07-29T06:15:13;8.60;;;4.90;;
68438;SDS011;55421;51.600;5.718;2022-07-29T06:17:39;8.10;;;5.30;;
68438;SDS011;55421;51.600;5.718;2022-07-29T06:20:06;5.20;;;4.70;;
68438;SDS011;55421;51.600;5.718;2022-07-29T06:22:33;9.10;;;4.50;;
68438;SDS011;55421;51.600;5.718;2022-07-29T06:25:01;6.70;;;4.60;;
68438;SDS011;55421;51.600;5.718;2022-07-29T06:27:28;6.50;;;4.60;;
68438;SDS011;55421;51.600;5.718;2022-07-29T06:29:56;4.70;;;4.30;;
68438;SDS011;55421;51.600;5.718;2022-07-29T06:32:23;8.00;;;5.20;;
68438;SDS011;55421;51.600;5.718;2022-07-29T06:34:49;8.50;;;5.00;;
68438;SDS011;55421;51.600;5.718;2022-07-29T06:37:16;8.30;;;4.90;;
68438;SDS011;55421;51.600;5.718;2022-07-29T06:39:45;6.90;;;5.00;;
68438;SDS011;55421;51.600;5.718;2022-07-29T06:42:12;6.90;;;5.60;;
68438;SDS011;55421;51.600;5.718;2022-07-29T06:44:38;7.50;;;5.90;;
68438;SDS011;55421;51.600;5.718;2022-07-29T06:47:04;6.70;;;5.60;;
68438;SDS011;55421;51.600;5.718;2022-07-29T06:49:31;7.40;;;5.10;;
68438;SDS011;55421;51.600;5.718;2022-07-29T06:51:57;11.10;;;5.00;;
68438;SDS011;55421;51.600;5.718;2022-07-29T06:54:24;7.90;;;5.20;;
68438;SDS011;55421;51.600;5.718;2022-07-29T06:56:50;8.00;;;5.30;;
68438;SDS011;55421;51.600;5.718;2022-07-29T06:59:16;7.70;;;5.70;;
68438;SDS011;55421;51.600;5.718;2022-07-29T07:01:43;8.80;;;5.10;;
68438;SDS011;55421;51.600;5.718;2022-07-29T07:04:10;8.20;;;5.00;;
68438;SDS011;55421;51.600;5.718;2022-07-29T07:06:38;9.60;;;4.80;;
68438;SDS011;55421;51.600;5.718;2022-07-29T07:09:06;7.50;;;5.30;;
68438;SDS011;55421;51.600;5.718;2022-07-29T07:11:33;6.20;;;5.30;;
68438;SDS011;55421;51.600;5.718;2022-07-29T07:13:59;5.60;;;5.00;;
68438;SDS011;55421;51.600;5.718;2022-07-29T07:16:26;6.40;;;4.80;;
68438;SDS011;55421;51.600;5.718;2022-07-29T07:18:52;6.80;;;4.80;;
68438;SDS011;55421;51.600;5.718;2022-07-29T07:21:19;4.80;;;4.20;;
68438;SDS011;55421;51.600;5.718;2022-07-29T07:23:46;6.80;;;4.60;;
68438;SDS011;55421;51.600;5.718;2022-07-29T07:26:12;6.50;;;5.00;;
68438;SDS011;55421;51.600;5.718;2022-07-29T07:28:39;5.60;;;4.50;;
68438;SDS011;55421;51.600;5.718;2022-07-29T07:31:05;7.30;;;4.70;;
68438;SDS011;55421;51.600;5.718;2022-07-29T07:33:32;4.90;;;4.40;;
68438;SDS011;55421;51.600;5.718;2022-07-29T07:35:58;7.10;;;4.20;;
68438;SDS011;55421;51.600;5.718;2022-07-29T07:38:25;7.30;;;5.00;;
68438;SDS011;55421;51.600;5.718;2022-07-29T07:40:51;5.20;;;4.70;;
68438;SDS011;55421;51.600;5.718;2022-07-29T07:43:17;10.90;;;5.30;;
68438;SDS011;55421;51.600;5.718;2022-07-29T07:45:44;6.80;;;4.20;;
68438;SDS011;55421;51.600;5.718;2022-07-29T07:48:10;7.10;;;5.00;;
68438;SDS011;55421;51.600;5.718;2022-07-29T07:50:37;7.80;;;5.30;;
68438;SDS011;55421;51.600;5.718;2022-07-29T07:53:03;5.70;;;5.00;;
68438;SDS011;55421;51.600;5.718;2022-07-29T07:55:30;7.80;;;5.00;;
68438;SDS011;55421;51.600;5.718;2022-07-29T07:57:56;10.00;;;5.30;;
68438;SDS011;55421;51.600;5.718;2022-07-29T08:00:23;5.50;;;5.00;;
68438;SDS011;55421;51.600;5.718;2022-07-29T08:02:50;4.90;;;4.20;;
68438;SDS011;55421;51.600;5.718;2022-07-29T08:05:16;7.00;;;4.70;;
68438;SDS011;55421;51.600;5.718;2022-07-29T08:07:47;6.40;;;4.50;;
68438;SDS011;55421;51.600;5.718;2022-07-29T08:10:14;6.90;;;4.80;;
68438;SDS011;55421;51.600;5.718;2022-07-29T08:13:04;5.60;;;4.80;;
68438;SDS011;55421;51.600;5.718;2022-07-29T08:15:31;7.20;;;5.20;;
68438;SDS011;55421;51.600;5.718;2022-07-29T08:17:58;8.40;;;5.60;;
68438;SDS011;55421;51.600;5.718;2022-07-29T08:20:25;7.30;;;5.60;;
68438;SDS011;55421;51.600;5.718;2022-07-29T08:22:52;5.30;;;4.80;;
68438;SDS011;55421;51.600;5.718;2022-07-29T08:25:19;6.00;;;4.60;;
68438;SDS011;55421;51.600;5.718;2022-07-29T08:27:47;6.10;;;5.10;;
68438;SDS011;55421;51.600;5.718;2022-07-29T08:30:14;5.50;;;5.00;;
68438;SDS011;55421;51.600;5.718;2022-07-29T08:32:40;6.20;;;5.00;;
68438;SDS011;55421;51.600;5.718;2022-07-29T08:35:07;7.80;;;5.60;;
68438;SDS011;55421;51.600;5.718;2022-07-29T08:37:36;6.50;;;4.80;;
68438;SDS011;55421;51.600;5.718;2022-07-29T08:40:03;7.20;;;5.10;;
68438;SDS011;55421;51.600;5.718;2022-07-29T08:42:30;7.50;;;5.30;;
68438;SDS011;55421;51.600;5.718;2022-07-29T08:44:57;6.60;;;5.30;;
68438;SDS011;55421;51.600;5.718;2022-07-29T08:47:25;5.20;;;4.70;;
68438;SDS011;55421;51.600;5.718;2022-07-29T08:49:53;6.60;;;5.20;;
68438;SDS011;55421;51.600;5.718;2022-07-29T08:52:21;7.60;;;5.40;;
68438;SDS011;55421;51.600;5.718;2022-07-29T08:54:52;9.40;;;5.70;;
68438;SDS011;55421;51.600;5.718;2022-07-29T08:57:21;10.40;;;6.30;;
68438;SDS011;55421;51.600;5.718;2022-07-29T08:59:50;6.40;;;5.30;;
68438;SDS011;55421;51.600;5.718;2022-07-29T09:02:20;8.10;;;6.10;;
68438;SDS011;55421;51.600;5.718;2022-07-29T09:04:49;7.30;;;6.40;;
68438;SDS011;55421;51.600;5.718;2022-07-29T09:07:17;8.60;;;6.50;;
68438;SDS011;55421;51.600;5.718;2022-07-29T09:09:44;7.00;;;6.30;;
68438;SDS011;55421;51.600;5.718;2022-07-29T09:12:12;7.50;;;6.00;;
68438;SDS011;55421;51.600;5.718;2022-07-29T09:14:39;10.20;;;6.00;;
68438;SDS011;55421;51.600;5.718;2022-07-29T09:17:06;8.90;;;6.40;;
68438;SDS011;55421;51.600;5.718;2022-07-29T09:19:35;9.30;;;6.20;;
68438;SDS011;55421;51.600;5.718;2022-07-29T09:22:04;7.70;;;6.30;;
68438;SDS011;55421;51.600;5.718;2022-07-29T09:24:46;10.20;;;6.90;;
68438;SDS011;55421;51.600;5.718;2022-07-29T09:27:24;10.80;;;6.70;;
68438;SDS011;55421;51.600;5.718;2022-07-29T09:30:05;8.90;;;7.20;;
68438;SDS011;55421;51.600;5.718;2022-07-29T09:32:54;8.20;;;6.40;;
68438;SDS011;55421;51.600;5.718;2022-07-29T09:35:24;9.60;;;6.70;;
68438;SDS011;55421;51.600;5.718;2022-07-29T09:37:51;8.90;;;6.80;;
68438;SDS011;55421;51.600;5.718;2022-07-29T09:40:21;8.30;;;5.70;;
68438;SDS011;55421;51.600;5.718;2022-07-29T09:42:52;9.80;;;7.70;;
68438;SDS011;55421;51.600;5.718;2022-07-29T09:45:32;8.30;;;7.10;;
68438;SDS011;55421;51.600;5.718;2022-07-29T09:48:14;7.40;;;6.40;;
68438;SDS011;55421;51.600;5.718;2022-07-29T09:50:43;9.50;;;6.60;;
68438;SDS011;55421;51.600;5.718;2022-07-29T09:53:11;9.30;;;6.10;;
68438;SDS011;55421;51.600;5.718;2022-07-29T09:55:50;9.10;;;6.60;;
68438;SDS011;55421;51.600;5.718;2022-07-29T09:58:19;8.80;;;6.30;;
68438;SDS011;55421;51.600;5.718;2022-07-29T10:00:48;8.90;;;7.00;;
68438;SDS011;55421;51.600;5.718;2022-07-29T10:03:16;7.50;;;5.60;;
68438;SDS011;55421;51.600;5.718;2022-07-29T10:05:43;7.90;;;5.20;;
68438;SDS011;55421;51.600;5.718;2022-07-29T10:08:11;7.10;;;5.60;;
68438;SDS011;55421;51.600;5.718;2022-07-29T10:10:40;5.20;;;4.50;;
68438;SDS011;55421;51.600;5.718;2022-07-29T10:13:11;8.20;;;5.90;;
68438;SDS011;55421;51.600;5.718;2022-07-29T10:15:40;6.60;;;4.60;;
68438;SDS011;55421;51.600;5.718;2022-07-29T10:18:11;8.60;;;5.00;;
68438;SDS011;55421;51.600;5.718;2022-07-29T10:20:40;5.60;;;4.80;;
68438;SDS011;55421;51.600;5.718;2022-07-29T10:23:07;6.50;;;5.70;;
68438;SDS011;55421;51.600;5.718;2022-07-29T10:25:34;7.90;;;5.80;;
68438;SDS011;55421;51.600;5.718;2022-07-29T10:28:01;7.70;;;5.60;;
68438;SDS011;55421;51.600;5.718;2022-07-29T10:30:27;8.10;;;5.80;;
68438;SDS011;55421;51.600;5.718;2022-07-29T10:33:17;9.60;;;5.90;;
68438;SDS011;55421;51.600;5.718;2022-07-29T10:36:15;6.10;;;5.10;;
68438;SDS011;55421;51.600;5.718;2022-07-29T10:42:19;6.50;;;5.30;;
68438;SDS011;55421;51.600;5.718;2022-07-29T10:44:51;7.10;;;5.70;;
68438;SDS011;55421;51.600;5.718;2022-07-29T10:47:21;6.50;;;5.00;;
68438;SDS011;55421;51.600;5.718;2022-07-29T10:49:59;10.10;;;5.50;;
68438;SDS011;55421;51.600;5.718;2022-07-29T10:55:37;9.80;;;5.70;;
68438;SDS011;55421;51.600;5.718;2022-07-29T10:58:21;7.00;;;5.90;;
68438;SDS011;55421;51.600;5.718;2022-07-29T11:00:51;7.90;;;5.50;;
68438;SDS011;55421;51.600;5.718;2022-07-29T11:06:07;7.00;;;5.70;;
68438;SDS011;55421;51.600;5.718;2022-07-29T11:08:34;7.90;;;6.00;;
68438;SDS011;55421;51.600;5.718;2022-07-29T11:13:46;11.20;;;6.20;;
68438;SDS011;55421;51.600;5.718;2022-07-29T11:16:18;6.30;;;5.00;;
68438;SDS011;55421;51.600;5.718;2022-07-29T11:21:38;8.00;;;5.60;;
68438;SDS011;55421;51.600;5.718;2022-07-29T11:24:12;9.40;;;6.20;;
68438;SDS011;55421;51.600;5.718;2022-07-29T11:26:39;8.20;;;5.90;;
68438;SDS011;55421;51.600;5.718;2022-07-29T11:29:17;9.00;;;6.00;;
68438;SDS011;55421;51.600;5.718;2022-07-29T11:31:49;6.80;;;5.70;;
68438;SDS011;55421;51.600;5.718;2022-07-29T11:34:30;8.50;;;4.90;;
68438;SDS011;55421;51.600;5.718;2022-07-29T11:39:43;5.40;;;4.70;;
68438;SDS011;55421;51.600;5.718;2022-07-29T11:45:05;5.50;;;4.20;;
68438;SDS011;55421;51.600;5.718;2022-07-29T11:47:37;5.30;;;3.80;;
68438;SDS011;55421;51.600;5.718;2022-07-29T11:50:13;5.40;;;4.10;;
68438;SDS011;55421;51.600;5.718;2022-07-29T11:52:47;4.60;;;3.50;;
68438;SDS011;55421;51.600;5.718;2022-07-29T11:55:19;5.50;;;3.80;;
68438;SDS011;55421;51.600;5.718;2022-07-29T11:57:50;9.40;;;5.20;;
68438;SDS011;55421;51.600;5.718;2022-07-29T12:02:54;8.20;;;4.50;;
68438;SDS011;55421;51.600;5.718;2022-07-29T12:05:30;5.30;;;4.30;;
68438;SDS011;55421;51.600;5.718;2022-07-29T12:08:12;5.60;;;4.00;;
68438;SDS011;55421;51.600;5.718;2022-07-29T12:10:41;6.10;;;3.90;;
68438;SDS011;55421;51.600;5.718;2022-07-29T12:13:09;10.60;;;4.20;;
68438;SDS011;55421;51.600;5.718;2022-07-29T12:15:37;8.80;;;4.80;;
68438;SDS011;55421;51.600;5.718;2022-07-29T12:18:19;4.70;;;4.20;;
68438;SDS011;55421;51.600;5.718;2022-07-29T12:20:47;7.50;;;4.20;;
68438;SDS011;55421;51.600;5.718;2022-07-29T12:23:14;4.60;;;3.90;;
68438;SDS011;55421;51.600;5.718;2022-07-29T12:25:43;6.20;;;4.30;;
68438;SDS011;55421;51.600;5.718;2022-07-29T12:28:14;4.70;;;3.60;;
68438;SDS011;55421;51.600;5.718;2022-07-29T12:30:45;6.40;;;3.20;;
68438;SDS011;55421;51.600;5.718;2022-07-29T12:33:22;3.90;;;3.10;;
68438;SDS011;55421;51.600;5.718;2022-07-29T12:35:53;4.50;;;2.90;;
68438;SDS011;55421;51.600;5.718;2022-07-29T12:38:22;5.80;;;3.20;;
68438;SDS011;55421;51.600;5.718;2022-07-29T12:40:49;3.20;;;2.40;;
68438;SDS011;55421;51.600;5.718;2022-07-29T12:43:20;6.20;;;4.20;;
68438;SDS011;55421;51.600;5.718;2022-07-29T12:45:51;4.70;;;3.50;;
68438;SDS011;55421;51.600;5.718;2022-07-29T12:48:35;7.30;;;3.50;;
68438;SDS011;55421;51.600;5.718;2022-07-29T12:51:04;7.70;;;3.50;;
68438;SDS011;55421;51.600;5.718;2022-07-29T12:53:32;3.30;;;3.00;;
68438;SDS011;55421;51.600;5.718;2022-07-29T12:55:59;3.40;;;2.90;;
68438;SDS011;55421;51.600;5.718;2022-07-29T12:58:33;3.50;;;2.70;;
68438;SDS011;55421;51.600;5.718;2022-07-29T13:01:16;6.50;;;3.90;;
68438;SDS011;55421;51.600;5.718;2022-07-29T13:03:48;4.60;;;2.40;;
68438;SDS011;55421;51.600;5.718;2022-07-29T13:06:43;2.90;;;2.60;;
68438;SDS011;55421;51.600;5.718;2022-07-29T13:09:16;2.50;;;2.10;;
68438;SDS011;55421;51.600;5.718;2022-07-29T13:11:53;5.40;;;2.70;;
68438;SDS011;55421;51.600;5.718;2022-07-29T13:14:34;6.70;;;3.10;;
68438;SDS011;55421;51.600;5.718;2022-07-29T13:17:11;8.20;;;3.10;;
68438;SDS011;55421;51.600;5.718;2022-07-29T13:19:44;3.20;;;2.80;;
68438;SDS011;55421;51.600;5.718;2022-07-29T13:22:14;5.20;;;3.00;;
68438;SDS011;55421;51.600;5.718;2022-07-29T13:24:57;7.40;;;3.30;;
68438;SDS011;55421;51.600;5.718;2022-07-29T13:27:29;4.20;;;3.70;;
68438;SDS011;55421;51.600;5.718;2022-07-29T13:29:59;4.70;;;3.80;;
68438;SDS011;55421;51.600;5.718;2022-07-29T13:32:28;8.60;;;4.20;;
68438;SDS011;55421;51.600;5.718;2022-07-29T13:34:57;5.80;;;4.50;;
68438;SDS011;55421;51.600;5.718;2022-07-29T13:37:25;4.80;;;4.00;;
68438;SDS011;55421;51.600;5.718;2022-07-29T13:39:56;3.50;;;2.90;;
68438;SDS011;55421;51.600;5.718;2022-07-29T13:42:23;5.60;;;3.00;;
68438;SDS011;55421;51.600;5.718;2022-07-29T13:44:50;5.80;;;3.20;;
68438;SDS011;55421;51.600;5.718;2022-07-29T13:47:21;6.80;;;3.00;;
68438;SDS011;55421;51.600;5.718;2022-07-29T13:49:49;4.80;;;2.80;;
68438;SDS011;55421;51.600;5.718;2022-07-29T13:52:16;4.50;;;3.10;;
68438;SDS011;55421;51.600;5.718;2022-07-29T13:54:43;4.30;;;2.70;;
68438;SDS011;55421;51.600;5.718;2022-07-29T13:57:10;9.80;;;2.80;;
68438;SDS011;55421;51.600;5.718;2022-07-29T13:59:38;5.30;;;2.80;;
68438;SDS011;55421;51.600;5.718;2022-07-29T14:02:09;4.30;;;2.80;;
68438;SDS011;55421;51.600;5.718;2022-07-29T14:04:38;3.10;;;2.60;;
68438;SDS011;55421;51.600;5.718;2022-07-29T14:07:06;4.40;;;2.50;;
68438;SDS011;55421;51.600;5.718;2022-07-29T14:09:32;4.10;;;2.40;;
68438;SDS011;55421;51.600;5.718;2022-07-29T14:11:59;9.40;;;2.50;;
68438;SDS011;55421;51.600;5.718;2022-07-29T14:14:25;8.40;;;2.50;;
68438;SDS011;55421;51.600;5.718;2022-07-29T14:16:52;4.50;;;2.70;;
68438;SDS011;55421;51.600;5.718;2022-07-29T14:19:18;7.00;;;3.20;;
68438;SDS011;55421;51.600;5.718;2022-07-29T14:21:45;4.50;;;3.00;;
68438;SDS011;55421;51.600;5.718;2022-07-29T14:24:11;6.60;;;3.40;;
68438;SDS011;55421;51.600;5.718;2022-07-29T14:26:38;7.70;;;2.70;;
68438;SDS011;55421;51.600;5.718;2022-07-29T14:29:04;5.20;;;3.00;;
68438;SDS011;55421;51.600;5.718;2022-07-29T14:31:30;3.40;;;2.10;;
68438;SDS011;55421;51.600;5.718;2022-07-29T14:33:57;2.20;;;1.90;;
68438;SDS011;55421;51.600;5.718;2022-07-29T14:36:23;5.30;;;2.60;;
68438;SDS011;55421;51.600;5.718;2022-07-29T14:38:50;5.40;;;2.50;;
68438;SDS011;55421;51.600;5.718;2022-07-29T14:41:16;5.40;;;2.20;;
68438;SDS011;55421;51.600;5.718;2022-07-29T14:43:42;3.90;;;1.90;;
68438;SDS011;55421;51.600;5.718;2022-07-29T14:46:09;3.00;;;2.20;;
68438;SDS011;55421;51.600;5.718;2022-07-29T14:48:36;3.80;;;2.60;;
68438;SDS011;55421;51.600;5.718;2022-07-29T14:51:02;2.90;;;2.60;;
68438;SDS011;55421;51.600;5.718;2022-07-29T14:53:29;5.20;;;2.40;;
68438;SDS011;55421;51.600;5.718;2022-07-29T14:55:55;4.60;;;2.40;;
68438;SDS011;55421;51.600;5.718;2022-07-29T14:58:21;4.40;;;2.20;;
68438;SDS011;55421;51.600;5.718;2022-07-29T15:00:48;5.50;;;2.20;;
68438;SDS011;55421;51.600;5.718;2022-07-29T15:03:15;4.60;;;2.80;;
68438;SDS011;55421;51.600;5.718;2022-07-29T15:05:41;6.70;;;2.60;;
68438;SDS011;55421;51.600;5.718;2022-07-29T15:08:08;4.10;;;2.70;;
68438;SDS011;55421;51.600;5.718;2022-07-29T15:10:34;7.40;;;2.80;;
68438;SDS011;55421;51.600;5.718;2022-07-29T15:13:01;4.00;;;2.60;;
68438;SDS011;55421;51.600;5.718;2022-07-29T15:15:29;8.10;;;2.90;;
68438;SDS011;55421;51.600;5.718;2022-07-29T15:17:57;4.40;;;2.90;;
68438;SDS011;55421;51.600;5.718;2022-07-29T15:20:23;4.00;;;2.70;;
68438;SDS011;55421;51.600;5.718;2022-07-29T15:22:55;4.30;;;2.60;;
68438;SDS011;55421;51.600;5.718;2022-07-29T15:25:34;3.70;;;2.50;;
68438;SDS011;55421;51.600;5.718;2022-07-29T15:28:02;5.90;;;3.10;;
68438;SDS011;55421;51.600;5.718;2022-07-29T15:30:34;5.00;;;2.90;;
68438;SDS011;55421;51.600;5.718;2022-07-29T15:33:07;3.40;;;2.50;;